Arabela, New Mexico
Current Conditions -  °F | °C
As of 5:35 AM on Saturday 01 Nov 2014 (Local Time) from KSRR Reporting Station
Clear Clear  
Wind Chill: 32°   Ceiling: Unl
Heat Index: 39°   Visibility: 10mi
Dew Point: 32°   Wind: 10mph
Humidity: 75%   Direction: 180°S
Pressure: 30.27"   Gusts: NA
Location:  33.282°N, 105.13°W
Report Text: KSRR 011135Z AUTO 18009KT 10SM CLR 04/00 A3027 RMK AO2 LTG DSNT N AND NW
Loading
Personal Weather Stations






























Interactive Weather Map
Tropical Storm Tracking
New forecast layout! Learn more

10-Day Weather Forecast

Advertisements
Track Severe Weather on mobile